sensor_id;sensor_type;location;lat;lon;timestamp;temperature;humidity
210;DHT22;90;48.810;9.120;2023-04-24T00:01:44;12.70;78.80
210;DHT22;90;48.810;9.120;2023-04-24T00:04:11;12.80;78.40
210;DHT22;90;48.810;9.120;2023-04-24T00:06:42;12.80;77.90
210;DHT22;90;48.810;9.120;2023-04-24T00:09:09;12.80;77.60
210;DHT22;90;48.810;9.120;2023-04-24T00:11:37;12.90;77.50
210;DHT22;90;48.810;9.120;2023-04-24T00:14:04;12.90;77.40
210;DHT22;90;48.810;9.120;2023-04-24T00:16:31;12.80;77.40
210;DHT22;90;48.810;9.120;2023-04-24T00:18:58;12.80;77.50
210;DHT22;90;48.810;9.120;2023-04-24T00:21:26;12.80;77.80
210;DHT22;90;48.810;9.120;2023-04-24T00:23:53;12.80;77.60
210;DHT22;90;48.810;9.120;2023-04-24T00:26:19;12.80;77.70
210;DHT22;90;48.810;9.120;2023-04-24T00:28:48;12.90;77.40
210;DHT22;90;48.810;9.120;2023-04-24T00:31:15;12.80;77.70
210;DHT22;90;48.810;9.120;2023-04-24T00:33:42;12.90;77.70
210;DHT22;90;48.810;9.120;2023-04-24T00:36:08;12.90;77.50
210;DHT22;90;48.810;9.120;2023-04-24T00:38:35;12.90;77.20
210;DHT22;90;48.810;9.120;2023-04-24T00:41:02;12.80;77.20
210;DHT22;90;48.810;9.120;2023-04-24T00:43:29;12.90;77.10
210;DHT22;90;48.810;9.120;2023-04-24T00:45:57;12.90;77.00
210;DHT22;90;48.810;9.120;2023-04-24T00:48:25;12.90;77.00
210;DHT22;90;48.810;9.120;2023-04-24T00:50:52;12.90;77.00
210;DHT22;90;48.810;9.120;2023-04-24T00:53:19;12.90;76.80
210;DHT22;90;48.810;9.120;2023-04-24T00:55:46;12.90;76.90
210;DHT22;90;48.810;9.120;2023-04-24T00:58:14;13.00;76.50
210;DHT22;90;48.810;9.120;2023-04-24T01:00:41;13.00;76.50
210;DHT22;90;48.810;9.120;2023-04-24T01:03:09;13.00;76.30
210;DHT22;90;48.810;9.120;2023-04-24T01:05:36;12.90;76.60
210;DHT22;90;48.810;9.120;2023-04-24T01:08:03;13.00;76.60
210;DHT22;90;48.810;9.120;2023-04-24T01:10:31;12.90;76.70
210;DHT22;90;48.810;9.120;2023-04-24T01:12:59;13.00;76.60
210;DHT22;90;48.810;9.120;2023-04-24T01:15:26;13.00;76.50
210;DHT22;90;48.810;9.120;2023-04-24T01:17:53;13.00;76.60
210;DHT22;90;48.810;9.120;2023-04-24T01:20:21;13.00;76.70
210;DHT22;90;48.810;9.120;2023-04-24T01:22:51;12.90;77.10
210;DHT22;90;48.810;9.120;2023-04-24T01:25:18;12.90;77.00
210;DHT22;90;48.810;9.120;2023-04-24T01:27:45;12.90;77.10
210;DHT22;90;48.810;9.120;2023-04-24T01:30:12;12.90;77.20
210;DHT22;90;48.810;9.120;2023-04-24T01:32:40;12.90;77.10
210;DHT22;90;48.810;9.120;2023-04-24T01:35:07;12.90;77.30
210;DHT22;90;48.810;9.120;2023-04-24T01:37:35;12.90;77.30
210;DHT22;90;48.810;9.120;2023-04-24T01:40:04;12.80;77.50
210;DHT22;90;48.810;9.120;2023-04-24T01:42:32;12.80;77.60
210;DHT22;90;48.810;9.120;2023-04-24T01:44:59;12.80;77.80
210;DHT22;90;48.810;9.120;2023-04-24T01:47:27;12.80;77.80
210;DHT22;90;48.810;9.120;2023-04-24T01:49:54;12.80;77.90
210;DHT22;90;48.810;9.120;2023-04-24T01:52:22;12.80;77.90
210;DHT22;90;48.810;9.120;2023-04-24T01:54:48;12.80;78.10
210;DHT22;90;48.810;9.120;2023-04-24T01:57:17;12.70;78.40
210;DHT22;90;48.810;9.120;2023-04-24T01:59:43;12.70;78.60
210;DHT22;90;48.810;9.120;2023-04-24T02:02:10;12.60;78.80
210;DHT22;90;48.810;9.120;2023-04-24T02:04:39;12.60;79.00
210;DHT22;90;48.810;9.120;2023-04-24T02:07:05;12.70;78.90
210;DHT22;90;48.810;9.120;2023-04-24T02:09:32;12.70;78.60
210;DHT22;90;48.810;9.120;2023-04-24T02:11:59;12.60;78.80
210;DHT22;90;48.810;9.120;2023-04-24T02:14:28;12.70;79.00
210;DHT22;90;48.810;9.120;2023-04-24T02:16:54;12.70;79.10
210;DHT22;90;48.810;9.120;2023-04-24T02:19:21;12.60;79.10
210;DHT22;90;48.810;9.120;2023-04-24T02:21:48;12.60;79.30
210;DHT22;90;48.810;9.120;2023-04-24T02:24:15;12.70;79.20
210;DHT22;90;48.810;9.120;2023-04-24T02:26:42;12.70;79.20
210;DHT22;90;48.810;9.120;2023-04-24T02:29:09;12.70;79.40
210;DHT22;90;48.810;9.120;2023-04-24T02:31:37;12.70;79.60
210;DHT22;90;48.810;9.120;2023-04-24T02:34:04;12.70;79.20
210;DHT22;90;48.810;9.120;2023-04-24T02:36:31;12.70;79.30
210;DHT22;90;48.810;9.120;2023-04-24T02:38:58;12.70;79.30
210;DHT22;90;48.810;9.120;2023-04-24T02:41:26;12.70;80.10
210;DHT22;90;48.810;9.120;2023-04-24T02:43:57;12.70;81.60
210;DHT22;90;48.810;9.120;2023-04-24T02:46:24;12.70;81.70
210;DHT22;90;48.810;9.120;2023-04-24T02:48:53;12.70;82.50
210;DHT22;90;48.810;9.120;2023-04-24T02:51:20;12.60;83.00
210;DHT22;90;48.810;9.120;2023-04-24T02:53:46;12.50;83.70
210;DHT22;90;48.810;9.120;2023-04-24T02:56:13;12.50;84.00
210;DHT22;90;48.810;9.120;2023-04-24T02:58:40;12.50;84.60
210;DHT22;90;48.810;9.120;2023-04-24T03:01:07;12.50;84.40
210;DHT22;90;48.810;9.120;2023-04-24T03:03:35;12.50;84.20
210;DHT22;90;48.810;9.120;2023-04-24T03:06:03;12.60;84.20
210;DHT22;90;48.810;9.120;2023-04-24T03:08:31;12.60;84.20
210;DHT22;90;48.810;9.120;2023-04-24T03:10:58;12.60;84.20
210;DHT22;90;48.810;9.120;2023-04-24T03:13:24;12.60;84.20
210;DHT22;90;48.810;9.120;2023-04-24T03:15:51;12.60;84.30
210;DHT22;90;48.810;9.120;2023-04-24T03:18:18;12.50;84.50
210;DHT22;90;48.810;9.120;2023-04-24T03:20:45;12.50;84.40
210;DHT22;90;48.810;9.120;2023-04-24T03:23:14;12.60;84.20
210;DHT22;90;48.810;9.120;2023-04-24T03:25:41;12.60;84.10
210;DHT22;90;48.810;9.120;2023-04-24T03:28:08;12.50;84.30
210;DHT22;90;48.810;9.120;2023-04-24T03:30:38;12.40;84.30
210;DHT22;90;48.810;9.120;2023-04-24T03:33:04;12.30;84.40
210;DHT22;90;48.810;9.120;2023-04-24T03:35:31;12.30;84.70
210;DHT22;90;48.810;9.120;2023-04-24T03:37:58;12.30;84.80
210;DHT22;90;48.810;9.120;2023-04-24T03:40:26;12.20;85.00
210;DHT22;90;48.810;9.120;2023-04-24T03:42:54;12.30;85.00
210;DHT22;90;48.810;9.120;2023-04-24T03:45:21;12.30;84.70
210;DHT22;90;48.810;9.120;2023-04-24T03:47:48;12.30;84.70
210;DHT22;90;48.810;9.120;2023-04-24T03:50:15;12.20;84.50
210;DHT22;90;48.810;9.120;2023-04-24T03:52:42;12.20;84.80
210;DHT22;90;48.810;9.120;2023-04-24T03:55:09;12.10;84.80
210;DHT22;90;48.810;9.120;2023-04-24T03:57:40;12.00;85.00
210;DHT22;90;48.810;9.120;2023-04-24T04:00:08;12.10;84.80
210;DHT22;90;48.810;9.120;2023-04-24T04:02:35;12.20;84.80
210;DHT22;90;48.810;9.120;2023-04-24T04:05:01;12.20;84.60
210;DHT22;90;48.810;9.120;2023-04-24T04:07:28;12.10;84.90
210;DHT22;90;48.810;9.120;2023-04-24T04:09:56;12.20;84.70
210;DHT22;90;48.810;9.120;2023-04-24T04:12:23;12.20;84.60
210;DHT22;90;48.810;9.120;2023-04-24T04:14:51;12.20;84.50
210;DHT22;90;48.810;9.120;2023-04-24T04:17:18;12.20;84.80
210;DHT22;90;48.810;9.120;2023-04-24T04:19:44;12.20;84.70
210;DHT22;90;48.810;9.120;2023-04-24T04:22:11;12.20;85.00
210;DHT22;90;48.810;9.120;2023-04-24T04:24:38;12.00;85.30
210;DHT22;90;48.810;9.120;2023-04-24T04:27:06;11.70;82.70
210;DHT22;90;48.810;9.120;2023-04-24T04:29:33;11.60;83.00
210;DHT22;90;48.810;9.120;2023-04-24T04:32:02;11.50;82.00
210;DHT22;90;48.810;9.120;2023-04-24T04:34:29;11.40;81.90
210;DHT22;90;48.810;9.120;2023-04-24T04:36:57;11.40;80.90
210;DHT22;90;48.810;9.120;2023-04-24T04:39:24;11.40;81.10
210;DHT22;90;48.810;9.120;2023-04-24T04:41:53;11.40;81.30
210;DHT22;90;48.810;9.120;2023-04-24T04:44:20;11.30;82.60
210;DHT22;90;48.810;9.120;2023-04-24T04:46:47;11.20;82.30
210;DHT22;90;48.810;9.120;2023-04-24T04:49:15;11.30;82.50
210;DHT22;90;48.810;9.120;2023-04-24T04:51:42;11.40;82.70
210;DHT22;90;48.810;9.120;2023-04-24T04:54:08;11.50;83.00
210;DHT22;90;48.810;9.120;2023-04-24T04:56:35;11.50;83.00
210;DHT22;90;48.810;9.120;2023-04-24T04:59:02;11.60;81.40
210;DHT22;90;48.810;9.120;2023-04-24T05:01:29;11.60;82.00
210;DHT22;90;48.810;9.120;2023-04-24T05:03:56;11.70;81.60
210;DHT22;90;48.810;9.120;2023-04-24T05:06:24;11.70;81.60
210;DHT22;90;48.810;9.120;2023-04-24T05:08:51;11.60;80.90
210;DHT22;90;48.810;9.120;2023-04-24T05:11:22;11.40;80.80
210;DHT22;90;48.810;9.120;2023-04-24T05:13:49;11.30;81.00
210;DHT22;90;48.810;9.120;2023-04-24T05:16:15;11.30;81.70
210;DHT22;90;48.810;9.120;2023-04-24T05:18:42;11.20;81.50
210;DHT22;90;48.810;9.120;2023-04-24T05:21:10;11.20;81.70
210;DHT22;90;48.810;9.120;2023-04-24T05:23:38;11.20;82.00
210;DHT22;90;48.810;9.120;2023-04-24T05:26:05;11.20;82.00
210;DHT22;90;48.810;9.120;2023-04-24T05:28:32;11.20;82.20
210;DHT22;90;48.810;9.120;2023-04-24T05:30:58;11.20;82.70
210;DHT22;90;48.810;9.120;2023-04-24T05:33:26;11.30;82.70
210;DHT22;90;48.810;9.120;2023-04-24T05:35:53;11.50;82.00
210;DHT22;90;48.810;9.120;2023-04-24T05:38:20;11.60;81.70
210;DHT22;90;48.810;9.120;2023-04-24T05:40:48;12.80;88.50
210;DHT22;90;48.810;9.120;2023-04-24T05:43:15;13.30;78.60
210;DHT22;90;48.810;9.120;2023-04-24T05:45:41;13.10;76.80
210;DHT22;90;48.810;9.120;2023-04-24T05:48:08;12.80;76.70
210;DHT22;90;48.810;9.120;2023-04-24T05:50:35;12.60;77.30
210;DHT22;90;48.810;9.120;2023-04-24T05:53:02;12.40;78.00
210;DHT22;90;48.810;9.120;2023-04-24T05:55:30;12.20;78.60
210;DHT22;90;48.810;9.120;2023-04-24T05:57:58;12.10;79.10
210;DHT22;90;48.810;9.120;2023-04-24T06:00:28;11.90;79.80
210;DHT22;90;48.810;9.120;2023-04-24T06:02:55;11.80;79.40
210;DHT22;90;48.810;9.120;2023-04-24T06:05:22;11.70;79.30
210;DHT22;90;48.810;9.120;2023-04-24T06:07:49;11.70;79.30
210;DHT22;90;48.810;9.120;2023-04-24T06:10:17;11.80;78.90
210;DHT22;90;48.810;9.120;2023-04-24T06:12:43;11.70;80.10
210;DHT22;90;48.810;9.120;2023-04-24T06:15:12;11.80;78.50
210;DHT22;90;48.810;9.120;2023-04-24T06:17:39;11.80;78.10
210;DHT22;90;48.810;9.120;2023-04-24T06:20:06;11.80;78.00
210;DHT22;90;48.810;9.120;2023-04-24T06:22:33;11.90;78.00
210;DHT22;90;48.810;9.120;2023-04-24T06:25:00;12.10;77.30
210;DHT22;90;48.810;9.120;2023-04-24T06:27:27;12.20;76.50
210;DHT22;90;48.810;9.120;2023-04-24T06:29:54;12.20;76.40
210;DHT22;90;48.810;9.120;2023-04-24T06:32:23;12.30;75.70
210;DHT22;90;48.810;9.120;2023-04-24T06:34:51;12.40;75.50
210;DHT22;90;48.810;9.120;2023-04-24T06:37:18;12.20;75.40
210;DHT22;90;48.810;9.120;2023-04-24T06:39:46;12.20;75.50
210;DHT22;90;48.810;9.120;2023-04-24T06:42:12;12.30;75.30
210;DHT22;90;48.810;9.120;2023-04-24T06:44:39;12.50;74.30
210;DHT22;90;48.810;9.120;2023-04-24T06:47:07;12.50;73.70
210;DHT22;90;48.810;9.120;2023-04-24T06:49:36;12.50;73.40
210;DHT22;90;48.810;9.120;2023-04-24T06:52:03;12.70;72.70
210;DHT22;90;48.810;9.120;2023-04-24T06:54:30;12.80;71.80
210;DHT22;90;48.810;9.120;2023-04-24T06:56:57;12.80;71.70
210;DHT22;90;48.810;9.120;2023-04-24T06:59:26;12.70;72.60
210;DHT22;90;48.810;9.120;2023-04-24T07:01:53;12.70;73.20
210;DHT22;90;48.810;9.120;2023-04-24T07:04:20;12.70;71.90
210;DHT22;90;48.810;9.120;2023-04-24T07:06:49;12.80;72.30
210;DHT22;90;48.810;9.120;2023-04-24T07:09:16;12.70;71.50
210;DHT22;90;48.810;9.120;2023-04-24T07:11:43;12.60;72.60
210;DHT22;90;48.810;9.120;2023-04-24T07:14:10;12.70;72.90
210;DHT22;90;48.810;9.120;2023-04-24T07:16:37;12.70;71.70
210;DHT22;90;48.810;9.120;2023-04-24T07:19:04;12.50;70.80
210;DHT22;90;48.810;9.120;2023-04-24T07:21:31;12.50;71.80
210;DHT22;90;48.810;9.120;2023-04-24T07:23:59;12.40;71.00
210;DHT22;90;48.810;9.120;2023-04-24T07:26:26;12.40;71.10
210;DHT22;90;48.810;9.120;2023-04-24T07:28:53;12.40;70.70
210;DHT22;90;48.810;9.120;2023-04-24T07:31:20;12.40;70.30
210;DHT22;90;48.810;9.120;2023-04-24T07:33:47;12.50;70.20
210;DHT22;90;48.810;9.120;2023-04-24T07:36:14;12.50;67.00
210;DHT22;90;48.810;9.120;2023-04-24T07:38:44;12.60;67.60
210;DHT22;90;48.810;9.120;2023-04-24T07:41:12;12.50;66.30
210;DHT22;90;48.810;9.120;2023-04-24T07:43:39;12.50;64.70
210;DHT22;90;48.810;9.120;2023-04-24T07:46:06;12.40;65.30
210;DHT22;90;48.810;9.120;2023-04-24T07:48:33;12.40;65.30
210;DHT22;90;48.810;9.120;2023-04-24T07:51:00;12.40;64.40
210;DHT22;90;48.810;9.120;2023-04-24T07:53:27;12.40;64.80
210;DHT22;90;48.810;9.120;2023-04-24T07:55:54;12.40;62.80
210;DHT22;90;48.810;9.120;2023-04-24T07:58:22;12.40;63.40
210;DHT22;90;48.810;9.120;2023-04-24T08:00:49;12.20;63.10
210;DHT22;90;48.810;9.120;2023-04-24T08:03:16;12.20;63.10
210;DHT22;90;48.810;9.120;2023-04-24T08:08:12;12.10;64.10
210;DHT22;90;48.810;9.120;2023-04-24T08:10:39;12.20;63.50
210;DHT22;90;48.810;9.120;2023-04-24T08:13:06;12.40;63.40
210;DHT22;90;48.810;9.120;2023-04-24T08:15:34;12.50;61.90
210;DHT22;90;48.810;9.120;2023-04-24T08:18:01;12.40;62.40
210;DHT22;90;48.810;9.120;2023-04-24T08:20:27;12.30;63.00
210;DHT22;90;48.810;9.120;2023-04-24T08:22:54;12.40;63.50
210;DHT22;90;48.810;9.120;2023-04-24T08:25:22;12.50;63.20
210;DHT22;90;48.810;9.120;2023-04-24T08:27:50;12.60;62.80
210;DHT22;90;48.810;9.120;2023-04-24T08:32:45;12.60;62.10
210;DHT22;90;48.810;9.120;2023-04-24T08:37:39;12.80;62.10
210;DHT22;90;48.810;9.120;2023-04-24T08:40:11;12.80;62.10
210;DHT22;90;48.810;9.120;2023-04-24T08:42:39;12.90;62.10
210;DHT22;90;48.810;9.120;2023-04-24T08:45:09;12.80;61.40
210;DHT22;90;48.810;9.120;2023-04-24T08:47:36;12.70;61.80
210;DHT22;90;48.810;9.120;2023-04-24T08:50:06;12.50;62.50
210;DHT22;90;48.810;9.120;2023-04-24T08:52:34;12.30;63.10
210;DHT22;90;48.810;9.120;2023-04-24T08:55:01;12.30;64.60
210;DHT22;90;48.810;9.120;2023-04-24T08:57:28;12.40;65.40
210;DHT22;90;48.810;9.120;2023-04-24T08:59:58;12.60;64.80
210;DHT22;90;48.810;9.120;2023-04-24T09:02:25;12.80;63.20
210;DHT22;90;48.810;9.120;2023-04-24T09:04:52;12.80;63.20
210;DHT22;90;48.810;9.120;2023-04-24T09:07:22;12.60;62.90
210;DHT22;90;48.810;9.120;2023-04-24T09:09:51;12.50;62.80
210;DHT22;90;48.810;9.120;2023-04-24T09:12:19;12.40;63.50
210;DHT22;90;48.810;9.120;2023-04-24T09:14:46;12.00;64.60
210;DHT22;90;48.810;9.120;2023-04-24T09:17:14;12.00;64.60
210;DHT22;90;48.810;9.120;2023-04-24T09:19:41;11.50;68.30
210;DHT22;90;48.810;9.120;2023-04-24T09:22:09;11.30;69.90
210;DHT22;90;48.810;9.120;2023-04-24T09:24:38;11.30;69.90
210;DHT22;90;48.810;9.120;2023-04-24T09:27:05;11.40;68.60
210;DHT22;90;48.810;9.120;2023-04-24T09:29:33;11.50;68.30
210;DHT22;90;48.810;9.120;2023-04-24T09:32:18;11.50;68.30
210;DHT22;90;48.810;9.120;2023-04-24T09:34:47;11.60;68.20
210;DHT22;90;48.810;9.120;2023-04-24T09:37:27;11.60;67.80
210;DHT22;90;48.810;9.120;2023-04-24T09:40:09;11.60;67.80
210;DHT22;90;48.810;9.120;2023-04-24T09:45:08;12.00;66.90
210;DHT22;90;48.810;9.120;2023-04-24T09:47:37;12.10;73.80
210;DHT22;90;48.810;9.120;2023-04-24T09:50:12;12.80;65.30
210;DHT22;90;48.810;9.120;2023-04-24T09:52:40;12.70;63.70
210;DHT22;90;48.810;9.120;2023-04-24T09:55:16;12.20;62.70
210;DHT22;90;48.810;9.120;2023-04-24T09:57:50;12.10;63.30
210;DHT22;90;48.810;9.120;2023-04-24T10:00:24;12.00;63.70
210;DHT22;90;48.810;9.120;2023-04-24T10:02:56;11.90;63.60
210;DHT22;90;48.810;9.120;2023-04-24T10:05:24;11.80;63.90
210;DHT22;90;48.810;9.120;2023-04-24T10:07:51;11.80;63.20
210;DHT22;90;48.810;9.120;2023-04-24T10:10:20;11.90;63.00
210;DHT22;90;48.810;9.120;2023-04-24T10:12:47;12.00;63.40
210;DHT22;90;48.810;9.120;2023-04-24T10:15:15;12.10;60.60
210;DHT22;90;48.810;9.120;2023-04-24T10:17:47;12.40;60.70
210;DHT22;90;48.810;9.120;2023-04-24T10:20:18;12.70;57.80
210;DHT22;90;48.810;9.120;2023-04-24T10:22:47;12.90;56.80
210;DHT22;90;48.810;9.120;2023-04-24T10:25:16;12.90;58.30
210;DHT22;90;48.810;9.120;2023-04-24T10:27:45;13.00;58.20
210;DHT22;90;48.810;9.120;2023-04-24T10:30:13;13.00;57.90
210;DHT22;90;48.810;9.120;2023-04-24T10:32:40;13.10;55.00
210;DHT22;90;48.810;9.120;2023-04-24T10:35:08;12.90;56.00
210;DHT22;90;48.810;9.120;2023-04-24T10:37:37;12.70;56.60
210;DHT22;90;48.810;9.120;2023-04-24T10:40:05;12.50;58.40
210;DHT22;90;48.810;9.120;2023-04-24T10:42:33;12.50;59.40
210;DHT22;90;48.810;9.120;2023-04-24T10:45:06;12.60;58.40
210;DHT22;90;48.810;9.120;2023-04-24T10:47:39;12.60;59.00
210;DHT22;90;48.810;9.120;2023-04-24T10:50:08;12.60;59.40
210;DHT22;90;48.810;9.120;2023-04-24T10:52:45;12.50;58.30
210;DHT22;90;48.810;9.120;2023-04-24T10:55:12;12.50;58.10
210;DHT22;90;48.810;9.120;2023-04-24T10:57:39;12.40;58.70
210;DHT22;90;48.810;9.120;2023-04-24T11:00:16;12.40;60.10
210;DHT22;90;48.810;9.120;2023-04-24T11:02:46;12.10;60.20
210;DHT22;90;48.810;9.120;2023-04-24T11:05:16;12.20;60.20
210;DHT22;90;48.810;9.120;2023-04-24T11:08:11;12.00;61.30
210;DHT22;90;48.810;9.120;2023-04-24T11:10:40;11.90;61.20
210;DHT22;90;48.810;9.120;2023-04-24T11:13:07;11.90;61.70
210;DHT22;90;48.810;9.120;2023-04-24T11:15:36;11.90;61.40
210;DHT22;90;48.810;9.120;2023-04-24T11:18:03;12.00;61.10
210;DHT22;90;48.810;9.120;2023-04-24T11:20:29;12.00;61.20
210;DHT22;90;48.810;9.120;2023-04-24T11:23:03;12.10;60.40
210;DHT22;90;48.810;9.120;2023-04-24T11:25:31;12.20;59.90
210;DHT22;90;48.810;9.120;2023-04-24T11:28:04;12.30;60.10
210;DHT22;90;48.810;9.120;2023-04-24T11:30:32;12.60;59.70
210;DHT22;90;48.810;9.120;2023-04-24T11:33:04;12.80;58.60
210;DHT22;90;48.810;9.120;2023-04-24T11:35:35;12.80;58.20
210;DHT22;90;48.810;9.120;2023-04-24T11:38:03;12.70;58.60
210;DHT22;90;48.810;9.120;2023-04-24T11:40:30;12.60;59.40
210;DHT22;90;48.810;9.120;2023-04-24T11:43:00;12.50;59.20
210;DHT22;90;48.810;9.120;2023-04-24T11:45:28;12.40;60.00
210;DHT22;90;48.810;9.120;2023-04-24T11:47:56;12.20;60.90
210;DHT22;90;48.810;9.120;2023-04-24T11:50:26;12.10;62.90
210;DHT22;90;48.810;9.120;2023-04-24T11:52:55;12.10;64.20
210;DHT22;90;48.810;9.120;2023-04-24T11:55:24;12.30;63.80
210;DHT22;90;48.810;9.120;2023-04-24T11:57:53;12.40;63.70
210;DHT22;90;48.810;9.120;2023-04-24T12:00:23;12.70;62.90
210;DHT22;90;48.810;9.120;2023-04-24T12:02:50;12.80;61.40
210;DHT22;90;48.810;9.120;2023-04-24T12:05:20;12.90;60.80
210;DHT22;90;48.810;9.120;2023-04-24T12:07:49;12.80;60.70
210;DHT22;90;48.810;9.120;2023-04-24T12:10:20;12.90;61.00
210;DHT22;90;48.810;9.120;2023-04-24T12:12:47;12.80;60.40
210;DHT22;90;48.810;9.120;2023-04-24T12:15:16;12.70;60.90
210;DHT22;90;48.810;9.120;2023-04-24T12:17:43;12.70;60.90
210;DHT22;90;48.810;9.120;2023-04-24T12:20:11;12.60;60.80
210;DHT22;90;48.810;9.120;2023-04-24T12:22:46;12.60;60.80
210;DHT22;90;48.810;9.120;2023-04-24T12:25:15;12.60;60.90
210;DHT22;90;48.810;9.120;2023-04-24T12:27:42;12.70;60.40
210;DHT22;90;48.810;9.120;2023-04-24T12:30:12;12.70;60.90
210;DHT22;90;48.810;9.120;2023-04-24T12:32:45;12.60;59.60
210;DHT22;90;48.810;9.120;2023-04-24T12:35:12;12.40;60.00
210;DHT22;90;48.810;9.120;2023-04-24T12:37:42;12.40;60.10
210;DHT22;90;48.810;9.120;2023-04-24T12:40:10;12.30;60.40
210;DHT22;90;48.810;9.120;2023-04-24T12:42:44;12.40;60.80
210;DHT22;90;48.810;9.120;2023-04-24T12:45:12;12.40;60.30
210;DHT22;90;48.810;9.120;2023-04-24T12:47:39;12.30;60.50
210;DHT22;90;48.810;9.120;2023-04-24T12:50:07;12.30;60.00
210;DHT22;90;48.810;9.120;2023-04-24T12:52:34;12.20;61.00
210;DHT22;90;48.810;9.120;2023-04-24T12:55:01;12.20;61.60
210;DHT22;90;48.810;9.120;2023-04-24T12:57:29;12.20;62.10
210;DHT22;90;48.810;9.120;2023-04-24T12:59:58;12.00;69.10
210;DHT22;90;48.810;9.120;2023-04-24T13:02:26;11.80;72.30
210;DHT22;90;48.810;9.120;2023-04-24T13:04:54;11.70;72.70
210;DHT22;90;48.810;9.120;2023-04-24T13:07:21;11.70;74.80
210;DHT22;90;48.810;9.120;2023-04-24T13:09:48;11.90;72.30
210;DHT22;90;48.810;9.120;2023-04-24T13:12:15;12.10;70.60
210;DHT22;90;48.810;9.120;2023-04-24T13:14:43;12.10;69.00
210;DHT22;90;48.810;9.120;2023-04-24T13:17:11;12.20;68.10
210;DHT22;90;48.810;9.120;2023-04-24T13:19:39;12.20;67.30
210;DHT22;90;48.810;9.120;2023-04-24T13:22:09;12.20;66.40
210;DHT22;90;48.810;9.120;2023-04-24T13:24:37;12.20;66.20
210;DHT22;90;48.810;9.120;2023-04-24T13:27:05;12.20;66.40
210;DHT22;90;48.810;9.120;2023-04-24T13:29:32;12.40;65.60
210;DHT22;90;48.810;9.120;2023-04-24T13:31:59;12.60;63.60
210;DHT22;90;48.810;9.120;2023-04-24T13:34:27;12.40;63.50
210;DHT22;90;48.810;9.120;2023-04-24T13:36:56;12.50;63.60
210;DHT22;90;48.810;9.120;2023-04-24T13:39:24;12.50;63.90
210;DHT22;90;48.810;9.120;2023-04-24T13:41:50;12.50;63.50
210;DHT22;90;48.810;9.120;2023-04-24T13:44:18;12.60;64.40
210;DHT22;90;48.810;9.120;2023-04-24T13:46:47;12.40;65.30
210;DHT22;90;48.810;9.120;2023-04-24T13:49:14;12.20;68.80
210;DHT22;90;48.810;9.120;2023-04-24T13:51:43;12.30;70.50
210;DHT22;90;48.810;9.120;2023-04-24T13:54:11;12.60;70.50
210;DHT22;90;48.810;9.120;2023-04-24T13:56:38;12.90;70.10
210;DHT22;90;48.810;9.120;2023-04-24T13:59:05;13.10;68.20
210;DHT22;90;48.810;9.120;2023-04-24T14:01:32;13.50;67.50
210;DHT22;90;48.810;9.120;2023-04-24T14:03:59;13.90;64.50
210;DHT22;90;48.810;9.120;2023-04-24T14:06:26;13.90;64.30
210;DHT22;90;48.810;9.120;2023-04-24T14:08:54;13.90;65.10
210;DHT22;90;48.810;9.120;2023-04-24T14:11:21;14.00;63.10
210;DHT22;90;48.810;9.120;2023-04-24T14:16:14;14.30;62.80
210;DHT22;90;48.810;9.120;2023-04-24T14:18:41;14.30;60.30
210;DHT22;90;48.810;9.120;2023-04-24T14:21:08;14.20;60.80
210;DHT22;90;48.810;9.120;2023-04-24T14:23:35;14.20;60.40
210;DHT22;90;48.810;9.120;2023-04-24T14:26:03;14.30;60.50
210;DHT22;90;48.810;9.120;2023-04-24T14:28:30;14.50;60.20
210;DHT22;90;48.810;9.120;2023-04-24T14:30:57;14.70;58.30
210;DHT22;90;48.810;9.120;2023-04-24T14:33:24;14.50;58.80
210;DHT22;90;48.810;9.120;2023-04-24T14:35:50;14.10;60.10
210;DHT22;90;48.810;9.120;2023-04-24T14:38:17;14.00;59.90
210;DHT22;90;48.810;9.120;2023-04-24T14:40:44;13.70;60.60
210;DHT22;90;48.810;9.120;2023-04-24T14:43:12;13.50;61.30
210;DHT22;90;48.810;9.120;2023-04-24T14:45:39;13.40;62.40
210;DHT22;90;48.810;9.120;2023-04-24T14:48:07;13.50;61.80
210;DHT22;90;48.810;9.120;2023-04-24T14:50:37;13.40;62.40
210;DHT22;90;48.810;9.120;2023-04-24T14:53:06;13.30;62.80
210;DHT22;90;48.810;9.120;2023-04-24T14:55:32;13.30;62.80
210;DHT22;90;48.810;9.120;2023-04-24T14:58:07;13.50;63.20
210;DHT22;90;48.810;9.120;2023-04-24T15:00:35;13.60;62.10
210;DHT22;90;48.810;9.120;2023-04-24T15:03:02;14.00;60.70
210;DHT22;90;48.810;9.120;2023-04-24T15:05:29;14.40;61.00
210;DHT22;90;48.810;9.120;2023-04-24T15:07:56;14.30;58.60
210;DHT22;90;48.810;9.120;2023-04-24T15:10:23;13.90;60.40
210;DHT22;90;48.810;9.120;2023-04-24T15:12:51;14.00;66.50
210;DHT22;90;48.810;9.120;2023-04-24T15:15:18;13.90;61.50
210;DHT22;90;48.810;9.120;2023-04-24T15:17:46;13.70;61.40
210;DHT22;90;48.810;9.120;2023-04-24T15:20:13;13.50;62.20
210;DHT22;90;48.810;9.120;2023-04-24T15:22:39;13.50;65.50
210;DHT22;90;48.810;9.120;2023-04-24T15:25:07;13.50;61.40
210;DHT22;90;48.810;9.120;2023-04-24T15:27:42;13.10;62.30
210;DHT22;90;48.810;9.120;2023-04-24T15:30:10;12.70;68.70
210;DHT22;90;48.810;9.120;2023-04-24T15:32:37;12.20;70.30
210;DHT22;90;48.810;9.120;2023-04-24T15:35:06;11.90;75.30
210;DHT22;90;48.810;9.120;2023-04-24T15:37:33;11.80;75.70
210;DHT22;90;48.810;9.120;2023-04-24T15:40:00;11.80;75.50
210;DHT22;90;48.810;9.120;2023-04-24T15:42:29;11.70;75.90
210;DHT22;90;48.810;9.120;2023-04-24T15:44:56;11.90;77.10
210;DHT22;90;48.810;9.120;2023-04-24T15:49:50;12.00;77.70
210;DHT22;90;48.810;9.120;2023-04-24T15:52:19;12.00;76.60
210;DHT22;90;48.810;9.120;2023-04-24T15:54:46;12.10;75.70
210;DHT22;90;48.810;9.120;2023-04-24T15:57:13;12.20;76.40
210;DHT22;90;48.810;9.120;2023-04-24T15:59:40;12.50;76.60
210;DHT22;90;48.810;9.120;2023-04-24T16:02:08;12.60;74.90
210;DHT22;90;48.810;9.120;2023-04-24T16:04:36;12.70;74.10
210;DHT22;90;48.810;9.120;2023-04-24T16:07:02;12.90;74.20
210;DHT22;90;48.810;9.120;2023-04-24T16:09:30;13.20;73.30
210;DHT22;90;48.810;9.120;2023-04-24T16:11:57;13.40;71.00
210;DHT22;90;48.810;9.120;2023-04-24T16:14:24;13.90;70.70
210;DHT22;90;48.810;9.120;2023-04-24T16:16:51;14.20;68.70
210;DHT22;90;48.810;9.120;2023-04-24T16:19:19;14.50;68.40
210;DHT22;90;48.810;9.120;2023-04-24T16:21:46;14.80;65.40
210;DHT22;90;48.810;9.120;2023-04-24T16:24:13;15.00;65.10
210;DHT22;90;48.810;9.120;2023-04-24T16:26:41;14.70;64.80
210;DHT22;90;48.810;9.120;2023-04-24T16:29:07;14.30;63.60
210;DHT22;90;48.810;9.120;2023-04-24T16:31:34;14.10;64.30
210;DHT22;90;48.810;9.120;2023-04-24T16:34:01;14.10;65.90
210;DHT22;90;48.810;9.120;2023-04-24T16:36:28;14.10;66.10
210;DHT22;90;48.810;9.120;2023-04-24T16:38:55;14.00;65.80
210;DHT22;90;48.810;9.120;2023-04-24T16:41:22;14.70;73.90
210;DHT22;90;48.810;9.120;2023-04-24T16:43:50;15.60;70.70
210;DHT22;90;48.810;9.120;2023-04-24T16:46:17;16.70;65.10
210;DHT22;90;48.810;9.120;2023-04-24T16:48:44;16.80;60.10
210;DHT22;90;48.810;9.120;2023-04-24T16:51:11;16.30;58.20
210;DHT22;90;48.810;9.120;2023-04-24T16:53:38;15.50;57.20
210;DHT22;90;48.810;9.120;2023-04-24T16:56:05;15.20;58.10
210;DHT22;90;48.810;9.120;2023-04-24T16:58:32;15.20;59.60
210;DHT22;90;48.810;9.120;2023-04-24T17:01:00;15.20;57.00
210;DHT22;90;48.810;9.120;2023-04-24T17:03:26;15.20;56.40
210;DHT22;90;48.810;9.120;2023-04-24T17:05:53;15.00;57.20
210;DHT22;90;48.810;9.120;2023-04-24T17:08:20;14.70;55.90
210;DHT22;90;48.810;9.120;2023-04-24T17:10:48;14.40;56.80